KHII

Lake Havasu City Airport

Lake Havasu City, Arizona, USA
METAR KHII 171635Z AUTO 19007KT 10SM CLR 34/19 A3002 RMK AO2
Observed Flight Rules
Aug-17 @ 16:35 UTC (18 minutes ago) Visual Flight Rules
Wind Visibility Clouds
190° at 7 knots 10 miles
  • Clear skies
Temperatures Readings
Current 34°C / 93°F
Dewpoint 19°C / 66°F
Humidity 41%
Altimeter 30.02" Hg
Pressure 1017 hPa
Elevation 238
METAR KHII 171635Z AUTO 19007KT 10SM CLR 34/19 A3002 RMK AO2
Observed Flight Rules
Aug-17 @ 16:35 UTC
(18 minutes ago)
VFR
Wind Visibility
190° at 7 knots 10 miles
Clouds
  • Clear skies
Temperature Dewpoint
34°C / 93°F 19°C / 66°F
Humidity Altimeter Pressure
41% 30.02" Hg 1017 hPa